sensor_id;sensor_type;location;lat;lon;timestamp;temperature;humidity
17571;DHT22;8903;52.220;20.978;2023-01-04T00:01:38;3.90;99.90
17571;DHT22;8903;52.220;20.978;2023-01-04T00:04:06;3.80;99.90
17571;DHT22;8903;52.220;20.978;2023-01-04T00:06:33;3.80;99.90
17571;DHT22;8903;52.220;20.978;2023-01-04T00:09:00;3.70;99.90
17571;DHT22;8903;52.220;20.978;2023-01-04T00:11:28;3.70;99.90
17571;DHT22;8903;52.220;20.978;2023-01-04T00:13:56;3.60;99.90
17571;DHT22;8903;52.220;20.978;2023-01-04T00:16:25;3.50;99.90
17571;DHT22;8903;52.220;20.978;2023-01-04T00:18:53;3.40;99.90
17571;DHT22;8903;52.220;20.978;2023-01-04T00:21:23;3.40;99.90
17571;DHT22;8903;52.220;20.978;2023-01-04T00:23:52;3.40;99.90
17571;DHT22;8903;52.220;20.978;2023-01-04T00:26:21;3.40;99.90
17571;DHT22;8903;52.220;20.978;2023-01-04T00:28:52;3.30;99.90
17571;DHT22;8903;52.220;20.978;2023-01-04T00:31:20;3.30;99.90
17571;DHT22;8903;52.220;20.978;2023-01-04T00:33:47;3.30;99.90
17571;DHT22;8903;52.220;20.978;2023-01-04T00:36:14;3.20;99.90
17571;DHT22;8903;52.220;20.978;2023-01-04T00:38:43;3.20;99.90
17571;DHT22;8903;52.220;20.978;2023-01-04T00:41:11;3.20;99.90
17571;DHT22;8903;52.220;20.978;2023-01-04T00:43:38;3.20;99.90
17571;DHT22;8903;52.220;20.978;2023-01-04T00:46:05;3.10;99.90
17571;DHT22;8903;52.220;20.978;2023-01-04T00:48:36;3.10;99.90
17571;DHT22;8903;52.220;20.978;2023-01-04T00:51:04;3.10;99.90
17571;DHT22;8903;52.220;20.978;2023-01-04T00:53:31;3.00;99.90
17571;DHT22;8903;52.220;20.978;2023-01-04T00:56:00;3.00;99.90
17571;DHT22;8903;52.220;20.978;2023-01-04T00:58:27;3.00;99.90
17571;DHT22;8903;52.220;20.978;2023-01-04T01:00:54;2.90;99.90
17571;DHT22;8903;52.220;20.978;2023-01-04T01:03:21;2.80;99.90
17571;DHT22;8903;52.220;20.978;2023-01-04T01:05:48;2.80;99.90
17571;DHT22;8903;52.220;20.978;2023-01-04T01:08:15;2.70;99.90
17571;DHT22;8903;52.220;20.978;2023-01-04T01:10:51;2.70;99.90
17571;DHT22;8903;52.220;20.978;2023-01-04T01:13:21;2.70;99.90
17571;DHT22;8903;52.220;20.978;2023-01-04T01:15:48;2.60;99.90
17571;DHT22;8903;52.220;20.978;2023-01-04T01:18:15;2.60;99.90
17571;DHT22;8903;52.220;20.978;2023-01-04T01:20:42;2.50;99.90
17571;DHT22;8903;52.220;20.978;2023-01-04T01:23:11;2.50;99.90
17571;DHT22;8903;52.220;20.978;2023-01-04T01:25:38;2.40;99.90
17571;DHT22;8903;52.220;20.978;2023-01-04T01:28:06;2.40;99.90
17571;DHT22;8903;52.220;20.978;2023-01-04T01:30:38;2.40;99.90
17571;DHT22;8903;52.220;20.978;2023-01-04T01:33:06;2.30;99.90
17571;DHT22;8903;52.220;20.978;2023-01-04T01:35:33;2.30;99.90
17571;DHT22;8903;52.220;20.978;2023-01-04T01:38:00;2.30;99.90
17571;DHT22;8903;52.220;20.978;2023-01-04T01:40:28;2.30;99.90
17571;DHT22;8903;52.220;20.978;2023-01-04T01:42:55;2.30;99.90
17571;DHT22;8903;52.220;20.978;2023-01-04T01:45:31;2.30;99.90
17571;DHT22;8903;52.220;20.978;2023-01-04T01:48:05;2.20;99.90
17571;DHT22;8903;52.220;20.978;2023-01-04T01:50:39;2.20;99.90
17571;DHT22;8903;52.220;20.978;2023-01-04T01:53:08;2.20;99.90
17571;DHT22;8903;52.220;20.978;2023-01-04T01:55:38;2.10;99.90
17571;DHT22;8903;52.220;20.978;2023-01-04T01:58:07;2.10;99.90
17571;DHT22;8903;52.220;20.978;2023-01-04T02:00:35;2.10;99.90
17571;DHT22;8903;52.220;20.978;2023-01-04T02:03:11;2.10;99.90
17571;DHT22;8903;52.220;20.978;2023-01-04T02:05:39;2.00;99.90
17571;DHT22;8903;52.220;20.978;2023-01-04T02:08:08;2.00;99.90
17571;DHT22;8903;52.220;20.978;2023-01-04T02:10:36;2.00;99.90
17571;DHT22;8903;52.220;20.978;2023-01-04T02:13:06;1.90;99.90
17571;DHT22;8903;52.220;20.978;2023-01-04T02:15:43;1.90;99.90
17571;DHT22;8903;52.220;20.978;2023-01-04T02:18:16;1.90;99.90
17571;DHT22;8903;52.220;20.978;2023-01-04T02:20:49;1.80;99.90
17571;DHT22;8903;52.220;20.978;2023-01-04T02:29:57;1.70;99.90
17571;DHT22;8903;52.220;20.978;2023-01-04T02:32:42;1.70;99.90
17571;DHT22;8903;52.220;20.978;2023-01-04T02:35:16;1.70;99.90
17571;DHT22;8903;52.220;20.978;2023-01-04T02:37:49;1.60;99.90
17571;DHT22;8903;52.220;20.978;2023-01-04T02:40:24;1.60;99.90
17571;DHT22;8903;52.220;20.978;2023-01-04T02:42:58;1.60;99.90
17571;DHT22;8903;52.220;20.978;2023-01-04T02:45:57;1.50;99.90
17571;DHT22;8903;52.220;20.978;2023-01-04T02:48:34;1.50;99.90
17571;DHT22;8903;52.220;20.978;2023-01-04T02:51:26;1.40;99.90
17571;DHT22;8903;52.220;20.978;2023-01-04T02:53:53;1.40;99.90
17571;DHT22;8903;52.220;20.978;2023-01-04T02:56:25;1.40;99.90
17571;DHT22;8903;52.220;20.978;2023-01-04T02:59:22;1.30;99.90
17571;DHT22;8903;52.220;20.978;2023-01-04T03:01:58;1.30;99.90
17571;DHT22;8903;52.220;20.978;2023-01-04T03:04:53;1.30;99.90
17571;DHT22;8903;52.220;20.978;2023-01-04T03:07:50;1.20;99.90
17571;DHT22;8903;52.220;20.978;2023-01-04T03:10:28;1.20;99.90
17571;DHT22;8903;52.220;20.978;2023-01-04T03:13:03;1.20;99.90
17571;DHT22;8903;52.220;20.978;2023-01-04T03:15:33;1.10;99.90
17571;DHT22;8903;52.220;20.978;2023-01-04T03:18:08;1.10;99.90
17571;DHT22;8903;52.220;20.978;2023-01-04T03:20:38;1.00;99.90
17571;DHT22;8903;52.220;20.978;2023-01-04T03:23:09;1.00;99.90
17571;DHT22;8903;52.220;20.978;2023-01-04T03:25:59;1.00;99.90
17571;DHT22;8903;52.220;20.978;2023-01-04T03:28:47;1.00;99.90
17571;DHT22;8903;52.220;20.978;2023-01-04T03:31:35;1.00;99.90
17571;DHT22;8903;52.220;20.978;2023-01-04T03:34:21;0.90;99.90
17571;DHT22;8903;52.220;20.978;2023-01-04T03:37:13;0.90;99.90
17571;DHT22;8903;52.220;20.978;2023-01-04T03:39:53;0.90;99.90
17571;DHT22;8903;52.220;20.978;2023-01-04T03:42:50;0.90;99.90
17571;DHT22;8903;52.220;20.978;2023-01-04T03:45:42;0.90;99.90
17571;DHT22;8903;52.220;20.978;2023-01-04T03:48:32;0.90;99.90
17571;DHT22;8903;52.220;20.978;2023-01-04T03:51:08;0.90;99.90
17571;DHT22;8903;52.220;20.978;2023-01-04T03:53:49;1.00;99.90
17571;DHT22;8903;52.220;20.978;2023-01-04T03:56:18;1.00;99.90
17571;DHT22;8903;52.220;20.978;2023-01-04T03:58:47;1.00;99.90
17571;DHT22;8903;52.220;20.978;2023-01-04T04:01:15;0.90;99.90
17571;DHT22;8903;52.220;20.978;2023-01-04T04:03:43;0.90;99.90
17571;DHT22;8903;52.220;20.978;2023-01-04T04:06:28;0.90;99.90
17571;DHT22;8903;52.220;20.978;2023-01-04T04:09:13;1.00;99.90
17571;DHT22;8903;52.220;20.978;2023-01-04T04:11:40;1.00;99.90
17571;DHT22;8903;52.220;20.978;2023-01-04T04:14:07;1.00;99.90
17571;DHT22;8903;52.220;20.978;2023-01-04T04:16:34;0.90;99.90
17571;DHT22;8903;52.220;20.978;2023-01-04T04:19:01;1.00;99.90
17571;DHT22;8903;52.220;20.978;2023-01-04T04:21:28;0.90;99.90
17571;DHT22;8903;52.220;20.978;2023-01-04T04:23:55;0.90;99.90
17571;DHT22;8903;52.220;20.978;2023-01-04T04:26:24;0.90;99.90
17571;DHT22;8903;52.220;20.978;2023-01-04T04:28:52;0.90;99.90
17571;DHT22;8903;52.220;20.978;2023-01-04T04:31:19;0.90;99.90
17571;DHT22;8903;52.220;20.978;2023-01-04T04:33:46;0.90;99.90
17571;DHT22;8903;52.220;20.978;2023-01-04T04:36:13;0.90;99.90
17571;DHT22;8903;52.220;20.978;2023-01-04T04:38:40;0.90;99.90
17571;DHT22;8903;52.220;20.978;2023-01-04T04:41:09;0.90;99.90
17571;DHT22;8903;52.220;20.978;2023-01-04T04:43:55;0.80;99.90
17571;DHT22;8903;52.220;20.978;2023-01-04T04:46:22;0.80;99.90
17571;DHT22;8903;52.220;20.978;2023-01-04T04:48:49;0.80;99.90
17571;DHT22;8903;52.220;20.978;2023-01-04T04:51:16;0.80;99.90
17571;DHT22;8903;52.220;20.978;2023-01-04T04:53:43;0.70;99.90
17571;DHT22;8903;52.220;20.978;2023-01-04T04:56:10;0.70;99.90
17571;DHT22;8903;52.220;20.978;2023-01-04T04:58:38;0.70;99.90
17571;DHT22;8903;52.220;20.978;2023-01-04T05:01:06;0.70;99.90
17571;DHT22;8903;52.220;20.978;2023-01-04T05:03:34;0.70;99.90
17571;DHT22;8903;52.220;20.978;2023-01-04T05:06:01;0.70;99.90
17571;DHT22;8903;52.220;20.978;2023-01-04T05:08:28;0.70;99.90
17571;DHT22;8903;52.220;20.978;2023-01-04T05:10:55;0.70;99.90
17571;DHT22;8903;52.220;20.978;2023-01-04T05:13:22;0.70;99.90
17571;DHT22;8903;52.220;20.978;2023-01-04T05:15:49;0.70;99.90
17571;DHT22;8903;52.220;20.978;2023-01-04T05:18:20;0.70;99.90
17571;DHT22;8903;52.220;20.978;2023-01-04T05:20:48;0.70;99.90
17571;DHT22;8903;52.220;20.978;2023-01-04T05:23:16;0.70;99.90
17571;DHT22;8903;52.220;20.978;2023-01-04T05:25:44;0.70;99.90
17571;DHT22;8903;52.220;20.978;2023-01-04T05:28:11;0.70;99.90
17571;DHT22;8903;52.220;20.978;2023-01-04T05:30:38;0.60;99.90
17571;DHT22;8903;52.220;20.978;2023-01-04T05:33:19;0.60;99.90
17571;DHT22;8903;52.220;20.978;2023-01-04T05:35:46;0.60;99.90
17571;DHT22;8903;52.220;20.978;2023-01-04T05:38:13;0.60;99.90
17571;DHT22;8903;52.220;20.978;2023-01-04T05:40:41;0.60;99.90
17571;DHT22;8903;52.220;20.978;2023-01-04T05:43:08;0.60;99.90
17571;DHT22;8903;52.220;20.978;2023-01-04T05:45:35;0.60;99.90
17571;DHT22;8903;52.220;20.978;2023-01-04T05:48:02;0.60;99.90
17571;DHT22;8903;52.220;20.978;2023-01-04T05:50:31;0.50;99.90
17571;DHT22;8903;52.220;20.978;2023-01-04T05:53:03;0.50;99.90
17571;DHT22;8903;52.220;20.978;2023-01-04T05:55:30;0.50;99.90
17571;DHT22;8903;52.220;20.978;2023-01-04T05:57:57;0.50;99.90
17571;DHT22;8903;52.220;20.978;2023-01-04T06:00:25;0.50;99.90
17571;DHT22;8903;52.220;20.978;2023-01-04T06:02:52;0.50;99.90
17571;DHT22;8903;52.220;20.978;2023-01-04T06:05:20;0.50;99.90
17571;DHT22;8903;52.220;20.978;2023-01-04T06:07:49;0.50;99.90
17571;DHT22;8903;52.220;20.978;2023-01-04T06:10:17;0.50;99.90
17571;DHT22;8903;52.220;20.978;2023-01-04T06:12:45;0.50;99.90
17571;DHT22;8903;52.220;20.978;2023-01-04T06:15:12;0.50;99.90
17571;DHT22;8903;52.220;20.978;2023-01-04T06:17:40;0.40;99.90
17571;DHT22;8903;52.220;20.978;2023-01-04T06:20:08;0.40;99.90
17571;DHT22;8903;52.220;20.978;2023-01-04T06:22:36;0.40;99.90
17571;DHT22;8903;52.220;20.978;2023-01-04T06:25:07;0.40;99.90
17571;DHT22;8903;52.220;20.978;2023-01-04T06:27:35;0.40;99.90
17571;DHT22;8903;52.220;20.978;2023-01-04T06:30:02;0.40;99.90
17571;DHT22;8903;52.220;20.978;2023-01-04T06:32:29;0.30;99.90
17571;DHT22;8903;52.220;20.978;2023-01-04T06:34:56;0.30;99.90
17571;DHT22;8903;52.220;20.978;2023-01-04T06:37:23;0.30;99.90
17571;DHT22;8903;52.220;20.978;2023-01-04T06:39:50;0.30;99.90
17571;DHT22;8903;52.220;20.978;2023-01-04T06:42:19;0.30;99.90
17571;DHT22;8903;52.220;20.978;2023-01-04T06:45:04;0.30;99.90
17571;DHT22;8903;52.220;20.978;2023-01-04T06:47:32;0.20;99.90
17571;DHT22;8903;52.220;20.978;2023-01-04T06:49:59;0.20;99.90
17571;DHT22;8903;52.220;20.978;2023-01-04T06:52:25;0.20;99.90
17571;DHT22;8903;52.220;20.978;2023-01-04T06:54:52;0.20;99.90
17571;DHT22;8903;52.220;20.978;2023-01-04T06:57:21;0.30;99.90
17571;DHT22;8903;52.220;20.978;2023-01-04T06:59:48;0.30;99.90
17571;DHT22;8903;52.220;20.978;2023-01-04T07:02:16;0.40;99.90
17571;DHT22;8903;52.220;20.978;2023-01-04T07:04:43;0.40;99.90
17571;DHT22;8903;52.220;20.978;2023-01-04T07:07:10;0.40;99.90
17571;DHT22;8903;52.220;20.978;2023-01-04T07:09:38;0.50;99.90
17571;DHT22;8903;52.220;20.978;2023-01-04T07:12:05;0.50;99.90
17571;DHT22;8903;52.220;20.978;2023-01-04T07:14:33;0.50;99.90
17571;DHT22;8903;52.220;20.978;2023-01-04T07:17:00;0.60;99.90
17571;DHT22;8903;52.220;20.978;2023-01-04T07:19:27;0.70;99.90
17571;DHT22;8903;52.220;20.978;2023-01-04T07:21:55;0.70;99.90
17571;DHT22;8903;52.220;20.978;2023-01-04T07:24:23;0.80;99.90
17571;DHT22;8903;52.220;20.978;2023-01-04T07:26:50;0.80;99.90
17571;DHT22;8903;52.220;20.978;2023-01-04T07:29:17;0.90;99.90
17571;DHT22;8903;52.220;20.978;2023-01-04T07:31:47;0.90;99.90
17571;DHT22;8903;52.220;20.978;2023-01-04T07:34:16;0.90;99.90
17571;DHT22;8903;52.220;20.978;2023-01-04T07:36:45;0.90;99.90
17571;DHT22;8903;52.220;20.978;2023-01-04T07:39:12;1.00;99.90
17571;DHT22;8903;52.220;20.978;2023-01-04T07:41:40;1.00;99.90
17571;DHT22;8903;52.220;20.978;2023-01-04T07:44:10;1.00;99.90
17571;DHT22;8903;52.220;20.978;2023-01-04T07:46:37;1.10;99.90
17571;DHT22;8903;52.220;20.978;2023-01-04T07:49:06;1.10;99.90
17571;DHT22;8903;52.220;20.978;2023-01-04T07:51:35;1.20;99.90
17571;DHT22;8903;52.220;20.978;2023-01-04T07:54:02;1.20;99.90
17571;DHT22;8903;52.220;20.978;2023-01-04T07:56:29;1.30;99.90
17571;DHT22;8903;52.220;20.978;2023-01-04T07:58:56;1.50;99.90
17571;DHT22;8903;52.220;20.978;2023-01-04T08:01:24;1.60;99.90
17571;DHT22;8903;52.220;20.978;2023-01-04T08:03:52;1.60;99.90
17571;DHT22;8903;52.220;20.978;2023-01-04T08:06:21;1.60;99.90
17571;DHT22;8903;52.220;20.978;2023-01-04T08:08:48;1.60;99.90
17571;DHT22;8903;52.220;20.978;2023-01-04T08:11:17;1.60;99.90
17571;DHT22;8903;52.220;20.978;2023-01-04T08:13:47;1.60;99.90
17571;DHT22;8903;52.220;20.978;2023-01-04T08:16:19;1.70;99.90
17571;DHT22;8903;52.220;20.978;2023-01-04T08:18:49;1.70;99.90
17571;DHT22;8903;52.220;20.978;2023-01-04T08:21:18;1.70;99.90
17571;DHT22;8903;52.220;20.978;2023-01-04T08:23:46;1.80;99.90
17571;DHT22;8903;52.220;20.978;2023-01-04T08:26:16;1.80;99.90
17571;DHT22;8903;52.220;20.978;2023-01-04T08:28:43;2.00;99.90
17571;DHT22;8903;52.220;20.978;2023-01-04T08:31:12;2.10;99.90
17571;DHT22;8903;52.220;20.978;2023-01-04T08:33:42;2.00;99.90
17571;DHT22;8903;52.220;20.978;2023-01-04T08:36:11;2.00;99.90
17571;DHT22;8903;52.220;20.978;2023-01-04T08:38:38;2.10;99.90
17571;DHT22;8903;52.220;20.978;2023-01-04T08:41:07;2.20;99.90
17571;DHT22;8903;52.220;20.978;2023-01-04T08:43:34;2.10;99.90
17571;DHT22;8903;52.220;20.978;2023-01-04T08:46:01;2.10;99.90
17571;DHT22;8903;52.220;20.978;2023-01-04T08:48:29;2.00;99.90
17571;DHT22;8903;52.220;20.978;2023-01-04T08:50:57;2.10;99.90
17571;DHT22;8903;52.220;20.978;2023-01-04T08:53:25;2.10;99.90
17571;DHT22;8903;52.220;20.978;2023-01-04T08:55:52;2.20;99.90
17571;DHT22;8903;52.220;20.978;2023-01-04T08:58:21;2.20;99.90
17571;DHT22;8903;52.220;20.978;2023-01-04T09:00:48;2.30;99.90
17571;DHT22;8903;52.220;20.978;2023-01-04T09:03:15;2.40;99.90
17571;DHT22;8903;52.220;20.978;2023-01-04T09:05:42;2.50;99.90
17571;DHT22;8903;52.220;20.978;2023-01-04T09:08:11;2.60;99.90
17571;DHT22;8903;52.220;20.978;2023-01-04T09:10:38;2.70;99.90
17571;DHT22;8903;52.220;20.978;2023-01-04T09:13:05;2.90;99.90
17571;DHT22;8903;52.220;20.978;2023-01-04T09:15:34;3.00;99.90
17571;DHT22;8903;52.220;20.978;2023-01-04T09:18:01;3.10;99.90
17571;DHT22;8903;52.220;20.978;2023-01-04T09:20:29;3.20;99.90
17571;DHT22;8903;52.220;20.978;2023-01-04T09:22:56;3.40;99.90
17571;DHT22;8903;52.220;20.978;2023-01-04T09:25:24;3.50;99.90
17571;DHT22;8903;52.220;20.978;2023-01-04T09:27:51;3.60;99.90
17571;DHT22;8903;52.220;20.978;2023-01-04T09:30:18;3.70;99.90
17571;DHT22;8903;52.220;20.978;2023-01-04T09:32:46;3.80;99.90
17571;DHT22;8903;52.220;20.978;2023-01-04T09:35:13;3.90;99.90
17571;DHT22;8903;52.220;20.978;2023-01-04T09:37:40;3.90;99.90
17571;DHT22;8903;52.220;20.978;2023-01-04T09:40:18;3.90;99.90
17571;DHT22;8903;52.220;20.978;2023-01-04T09:42:46;3.90;99.90
17571;DHT22;8903;52.220;20.978;2023-01-04T09:45:17;3.80;99.90
17571;DHT22;8903;52.220;20.978;2023-01-04T09:47:51;3.80;99.90
17571;DHT22;8903;52.220;20.978;2023-01-04T09:50:24;3.70;99.90
17571;DHT22;8903;52.220;20.978;2023-01-04T09:52:59;3.70;99.90
17571;DHT22;8903;52.220;20.978;2023-01-04T09:55:32;3.80;99.90
17571;DHT22;8903;52.220;20.978;2023-01-04T09:58:07;3.90;99.90
17571;DHT22;8903;52.220;20.978;2023-01-04T10:00:42;4.00;99.90
17571;DHT22;8903;52.220;20.978;2023-01-04T10:03:14;4.20;99.90
17571;DHT22;8903;52.220;20.978;2023-01-04T10:05:44;4.30;99.90
17571;DHT22;8903;52.220;20.978;2023-01-04T10:08:14;4.40;99.90
17571;DHT22;8903;52.220;20.978;2023-01-04T10:10:59;4.50;99.90
17571;DHT22;8903;52.220;20.978;2023-01-04T10:13:45;4.60;99.90
17571;DHT22;8903;52.220;20.978;2023-01-04T10:16:27;4.70;99.90
17571;DHT22;8903;52.220;20.978;2023-01-04T10:19:07;4.80;99.90
17571;DHT22;8903;52.220;20.978;2023-01-04T10:21:40;4.80;99.90
17571;DHT22;8903;52.220;20.978;2023-01-04T10:24:39;4.80;99.90
17571;DHT22;8903;52.220;20.978;2023-01-04T10:27:17;4.80;99.90
17571;DHT22;8903;52.220;20.978;2023-01-04T10:29:53;4.90;99.90
17571;DHT22;8903;52.220;20.978;2023-01-04T10:32:29;4.90;99.90
17571;DHT22;8903;52.220;20.978;2023-01-04T10:34:59;5.00;99.90
17571;DHT22;8903;52.220;20.978;2023-01-04T10:37:31;5.00;99.90
17571;DHT22;8903;52.220;20.978;2023-01-04T10:39:59;5.00;99.90
17571;DHT22;8903;52.220;20.978;2023-01-04T10:42:31;5.00;99.90
17571;DHT22;8903;52.220;20.978;2023-01-04T10:45:08;4.90;99.90
17571;DHT22;8903;52.220;20.978;2023-01-04T10:47:46;5.00;99.90
17571;DHT22;8903;52.220;20.978;2023-01-04T10:50:20;5.00;99.90
17571;DHT22;8903;52.220;20.978;2023-01-04T10:52:51;4.90;99.90
17571;DHT22;8903;52.220;20.978;2023-01-04T10:55:26;4.90;99.90
17571;DHT22;8903;52.220;20.978;2023-01-04T10:57:57;4.90;99.90
17571;DHT22;8903;52.220;20.978;2023-01-04T11:00:28;4.90;99.90
17571;DHT22;8903;52.220;20.978;2023-01-04T11:02:59;4.90;99.90
17571;DHT22;8903;52.220;20.978;2023-01-04T11:05:33;4.90;99.90
17571;DHT22;8903;52.220;20.978;2023-01-04T11:08:09;4.90;99.90
17571;DHT22;8903;52.220;20.978;2023-01-04T11:10:41;4.90;99.90
17571;DHT22;8903;52.220;20.978;2023-01-04T11:13:10;4.90;99.90
17571;DHT22;8903;52.220;20.978;2023-01-04T11:15:37;4.80;99.90
17571;DHT22;8903;52.220;20.978;2023-01-04T11:18:08;4.80;99.90
17571;DHT22;8903;52.220;20.978;2023-01-04T11:20:37;4.80;99.90
17571;DHT22;8903;52.220;20.978;2023-01-04T11:23:08;4.90;99.90
17571;DHT22;8903;52.220;20.978;2023-01-04T11:25:42;5.00;99.90
17571;DHT22;8903;52.220;20.978;2023-01-04T11:28:14;4.90;99.90
17571;DHT22;8903;52.220;20.978;2023-01-04T11:30:58;4.90;99.90
17571;DHT22;8903;52.220;20.978;2023-01-04T11:33:26;4.90;99.90
17571;DHT22;8903;52.220;20.978;2023-01-04T11:35:56;4.90;99.90
17571;DHT22;8903;52.220;20.978;2023-01-04T11:38:27;5.00;99.90
17571;DHT22;8903;52.220;20.978;2023-01-04T11:40:57;5.00;99.90
17571;DHT22;8903;52.220;20.978;2023-01-04T11:43:26;5.00;99.90
17571;DHT22;8903;52.220;20.978;2023-01-04T11:45:56;5.00;99.90
17571;DHT22;8903;52.220;20.978;2023-01-04T11:48:36;5.00;99.90
17571;DHT22;8903;52.220;20.978;2023-01-04T11:51:16;5.00;99.90
17571;DHT22;8903;52.220;20.978;2023-01-04T11:53:43;5.10;99.90
17571;DHT22;8903;52.220;20.978;2023-01-04T11:56:16;5.10;99.90
17571;DHT22;8903;52.220;20.978;2023-01-04T11:59:02;5.00;99.90
17571;DHT22;8903;52.220;20.978;2023-01-04T12:01:30;5.00;99.90
17571;DHT22;8903;52.220;20.978;2023-01-04T12:03:58;5.10;99.90
17571;DHT22;8903;52.220;20.978;2023-01-04T12:06:33;5.00;99.90
17571;DHT22;8903;52.220;20.978;2023-01-04T12:09:01;5.10;99.90
17571;DHT22;8903;52.220;20.978;2023-01-04T12:11:30;5.10;99.90
17571;DHT22;8903;52.220;20.978;2023-01-04T12:13:58;5.00;99.90
17571;DHT22;8903;52.220;20.978;2023-01-04T12:16:44;5.10;99.90
17571;DHT22;8903;52.220;20.978;2023-01-04T12:19:14;5.10;99.90
17571;DHT22;8903;52.220;20.978;2023-01-04T12:21:46;5.10;99.90
17571;DHT22;8903;52.220;20.978;2023-01-04T12:24:17;5.10;99.90
17571;DHT22;8903;52.220;20.978;2023-01-04T12:26:45;5.10;99.90
17571;DHT22;8903;52.220;20.978;2023-01-04T12:29:43;5.20;99.90
17571;DHT22;8903;52.220;20.978;2023-01-04T12:32:37;5.20;99.90
17571;DHT22;8903;52.220;20.978;2023-01-04T12:39:22;5.30;99.90
17571;DHT22;8903;52.220;20.978;2023-01-04T12:42:18;5.20;99.90
17571;DHT22;8903;52.220;20.978;2023-01-04T12:45:13;5.30;99.90
17571;DHT22;8903;52.220;20.978;2023-01-04T12:47:42;5.30;99.90
17571;DHT22;8903;52.220;20.978;2023-01-04T12:50:27;5.30;99.90
17571;DHT22;8903;52.220;20.978;2023-01-04T12:53:08;5.20;99.90
17571;DHT22;8903;52.220;20.978;2023-01-04T12:55:56;5.30;99.90
17571;DHT22;8903;52.220;20.978;2023-01-04T13:01:30;5.30;99.90
17571;DHT22;8903;52.220;20.978;2023-01-04T13:04:00;5.30;99.90
17571;DHT22;8903;52.220;20.978;2023-01-04T13:06:29;5.30;99.90
17571;DHT22;8903;52.220;20.978;2023-01-04T13:08:58;5.30;99.90
17571;DHT22;8903;52.220;20.978;2023-01-04T13:11:55;5.30;99.90
17571;DHT22;8903;52.220;20.978;2023-01-04T13:14:31;5.30;99.90
17571;DHT22;8903;52.220;20.978;2023-01-04T13:17:15;5.30;99.90
17571;DHT22;8903;52.220;20.978;2023-01-04T13:19:43;5.30;99.90
17571;DHT22;8903;52.220;20.978;2023-01-04T13:22:16;5.30;99.90
17571;DHT22;8903;52.220;20.978;2023-01-04T13:24:44;5.40;99.90
17571;DHT22;8903;52.220;20.978;2023-01-04T13:27:16;5.40;99.90
17571;DHT22;8903;52.220;20.978;2023-01-04T13:29:45;5.40;99.90
17571;DHT22;8903;52.220;20.978;2023-01-04T13:32:15;5.40;99.90
17571;DHT22;8903;52.220;20.978;2023-01-04T13:34:51;5.40;99.90
17571;DHT22;8903;52.220;20.978;2023-01-04T13:37:26;5.40;99.90
17571;DHT22;8903;52.220;20.978;2023-01-04T13:40:21;5.40;99.90
17571;DHT22;8903;52.220;20.978;2023-01-04T13:42:58;5.50;99.90
17571;DHT22;8903;52.220;20.978;2023-01-04T13:45:48;5.50;99.90
17571;DHT22;8903;52.220;20.978;2023-01-04T13:48:18;5.50;99.90
17571;DHT22;8903;52.220;20.978;2023-01-04T13:50:59;5.50;99.90
17571;DHT22;8903;52.220;20.978;2023-01-04T13:53:27;5.50;99.90
17571;DHT22;8903;52.220;20.978;2023-01-04T13:55:56;5.60;99.90
17571;DHT22;8903;52.220;20.978;2023-01-04T13:58:26;5.60;99.90
17571;DHT22;8903;52.220;20.978;2023-01-04T14:00:58;5.60;99.90
17571;DHT22;8903;52.220;20.978;2023-01-04T14:03:29;5.60;99.90
17571;DHT22;8903;52.220;20.978;2023-01-04T14:06:10;5.60;99.90
17571;DHT22;8903;52.220;20.978;2023-01-04T14:08:40;5.60;99.90
17571;DHT22;8903;52.220;20.978;2023-01-04T14:11:15;5.70;99.90
17571;DHT22;8903;52.220;20.978;2023-01-04T14:14:23;5.70;99.90
17571;DHT22;8903;52.220;20.978;2023-01-04T14:17:12;5.70;99.90
17571;DHT22;8903;52.220;20.978;2023-01-04T14:19:43;5.70;99.90
17571;DHT22;8903;52.220;20.978;2023-01-04T14:22:37;5.70;99.90
17571;DHT22;8903;52.220;20.978;2023-01-04T14:25:37;5.70;99.90
17571;DHT22;8903;52.220;20.978;2023-01-04T14:28:33;5.70;99.90
17571;DHT22;8903;52.220;20.978;2023-01-04T14:31:20;5.80;99.90
17571;DHT22;8903;52.220;20.978;2023-01-04T14:33:51;5.80;99.90
17571;DHT22;8903;52.220;20.978;2023-01-04T14:36:21;5.80;99.90
17571;DHT22;8903;52.220;20.978;2023-01-04T14:41:54;5.80;99.90
17571;DHT22;8903;52.220;20.978;2023-01-04T14:44:23;5.90;99.90
17571;DHT22;8903;52.220;20.978;2023-01-04T14:46:55;5.90;99.90
17571;DHT22;8903;52.220;20.978;2023-01-04T14:49:22;5.90;99.90
17571;DHT22;8903;52.220;20.978;2023-01-04T14:51:53;5.90;99.90
17571;DHT22;8903;52.220;20.978;2023-01-04T14:54:21;5.90;99.90
17571;DHT22;8903;52.220;20.978;2023-01-04T14:56:48;5.80;99.90
17571;DHT22;8903;52.220;20.978;2023-01-04T14:59:16;5.70;99.90
17571;DHT22;8903;52.220;20.978;2023-01-04T15:01:43;5.60;99.90
17571;DHT22;8903;52.220;20.978;2023-01-04T15:04:11;5.60;99.90
17571;DHT22;8903;52.220;20.978;2023-01-04T15:06:46;5.50;99.90
17571;DHT22;8903;52.220;20.978;2023-01-04T15:09:14;5.50;99.90
17571;DHT22;8903;52.220;20.978;2023-01-04T15:11:41;5.50;99.90
17571;DHT22;8903;52.220;20.978;2023-01-04T15:14:08;5.50;99.90
17571;DHT22;8903;52.220;20.978;2023-01-04T15:16:35;5.50;99.90
17571;DHT22;8903;52.220;20.978;2023-01-04T15:19:02;5.50;99.90
17571;DHT22;8903;52.220;20.978;2023-01-04T15:21:30;5.50;99.90
17571;DHT22;8903;52.220;20.978;2023-01-04T15:23:58;5.60;99.90
17571;DHT22;8903;52.220;20.978;2023-01-04T15:26:25;5.60;99.90
17571;DHT22;8903;52.220;20.978;2023-01-04T15:28:52;5.60;99.90
17571;DHT22;8903;52.220;20.978;2023-01-04T15:31:19;5.60;99.90
17571;DHT22;8903;52.220;20.978;2023-01-04T15:33:46;5.70;99.90
17571;DHT22;8903;52.220;20.978;2023-01-04T15:36:14;5.70;99.90
17571;DHT22;8903;52.220;20.978;2023-01-04T15:38:45;5.70;99.90
17571;DHT22;8903;52.220;20.978;2023-01-04T15:41:14;5.70;99.90
17571;DHT22;8903;52.220;20.978;2023-01-04T15:44:02;5.70;99.90
17571;DHT22;8903;52.220;20.978;2023-01-04T15:46:28;5.70;99.90
17571;DHT22;8903;52.220;20.978;2023-01-04T15:48:55;5.70;99.90
17571;DHT22;8903;52.220;20.978;2023-01-04T15:51:22;5.70;99.90
17571;DHT22;8903;52.220;20.978;2023-01-04T15:53:51;5.80;99.90
17571;DHT22;8903;52.220;20.978;2023-01-04T15:56:19;5.80;99.90
17571;DHT22;8903;52.220;20.978;2023-01-04T15:58:50;5.80;99.90
17571;DHT22;8903;52.220;20.978;2023-01-04T16:01:17;5.80;99.90
17571;DHT22;8903;52.220;20.978;2023-01-04T16:03:44;5.80;99.90
17571;DHT22;8903;52.220;20.978;2023-01-04T16:06:12;5.80;99.90
17571;DHT22;8903;52.220;20.978;2023-01-04T16:08:40;5.70;99.90
17571;DHT22;8903;52.220;20.978;2023-01-04T16:11:10;5.60;99.90
17571;DHT22;8903;52.220;20.978;2023-01-04T16:13:38;5.50;99.90
17571;DHT22;8903;52.220;20.978;2023-01-04T16:16:06;5.50;99.90
17571;DHT22;8903;52.220;20.978;2023-01-04T16:18:34;5.40;99.90
17571;DHT22;8903;52.220;20.978;2023-01-04T16:21:05;5.40;99.90
17571;DHT22;8903;52.220;20.978;2023-01-04T16:23:32;5.40;99.90
17571;DHT22;8903;52.220;20.978;2023-01-04T16:26:05;5.40;99.90
17571;DHT22;8903;52.220;20.978;2023-01-04T16:28:34;5.40;99.90
17571;DHT22;8903;52.220;20.978;2023-01-04T16:31:01;5.40;99.90